Thompson, ND (58278)

9:40 AM CDT on September 01, 2014 (GMT -0500)
Grand Forks International | Change Station
CLOSE
Current Station
Airport
Location: Grand Forks,
Elevation: 843 ft
Nearby Weather Stations

Elev 843 ft 47.95 °N, 97.18 °W | Updated 47 minutes ago

Scattered Clouds
Scattered Clouds
61 °F
Feels Like 61 °F
N
0
Wind Variable Wind from North

Today
High -- | Low -- °F
--% Chance of Precip.
Yesterday
High -- | Low -- °F
Precip. -- in
6:46 AM 8:08 PM
Waxing Crescent, 41% visible
Pressure 29.70 in
Visibility 10.0 miles
Clouds Few 6000 ft
Scattered Clouds 25000 ft
Dew Point 56 °F
Humidity 83%
Rainfall 0.00 in
Snow Depth Not available.
UV 1 out of 12
Pollen 9.30 out of 12
Air Quality Not available.
Flu Activity Not available.
METAR KGFK 011353Z 00000KT 10SM FEW060 SCT250 16/13 A2970 RMK AO2 SLP056 T01610133

More Conditions Fewer Conditions

Pressure 29.70 in
Visibility 10.0 miles
Clouds Few 6000 ft
Scattered Clouds 25000 ft
Dew Point 56 °F
Humidity 83%
Rainfall 0.00 in
Snow Depth Not available.
UV 1 out of 12
Pollen 9.30 out of 12
Air Quality Not available.
Flu Activity Not available.
METAR KGFK 011353Z 00000KT 10SM FEW060 SCT250 16/13 A2970 RMK AO2 SLP056 T01610133

More Conditions Fewer Conditions

10-Day Weather Forecast

Almanac

Astronomy

Sep. 01, 2014 Rise Set
Actual Time 6:46 AM CDT 8:08 PM CDT
Civil Twilight 6:14 AM CDT 8:40 PM CDT
Nautical Twilight 5:35 AM CDT 9:19 PM CDT
Astronomical Twilight 4:54 AM CDT 10:01 PM CDT
Moon 2:03 PM CDT 11:41 PM CDT
Length of Visible Light 14h 26m
Length of Day
13h 22m
Tomorrow will be 3m 20s shorter.
Waxing Crescent, 41% of the Moon is Illuminated
Today
Waxing Crescent
Sep 2
First Quarter
Sep 8
Full
Sep 15
Last Quarter
Sep 24
New

Today's Extremes

State Highs State Lows

Community

WunderPhotos

Upload Photos

1,749,253 photos uploaded!

Nearby

Snow Depth

Station Depth Elevation
No new snow has been reported.

Earthquake Activity

City Distance Mag. Time & Date
No recent earthquake activity has been reported nearby.
Minimum magnitude displayed is 2.5.

Coastal Water Temperatures

Place Temperature
No Stations Reporting

Nearby Weather Stations